createdAt,value
2017-07-19T00:00:47.795Z,7.70
2017-07-19T00:03:16.073Z,7.90
2017-07-19T00:05:44.407Z,7.20
2017-07-19T00:08:12.757Z,7.80
2017-07-19T00:10:42.139Z,7.00
2017-07-19T00:13:11.242Z,8.67
2017-07-19T00:15:40.339Z,8.00
2017-07-19T00:18:09.538Z,9.77
2017-07-19T00:20:38.631Z,9.67
2017-07-19T00:23:07.726Z,8.73
2017-07-19T00:25:36.822Z,12.27
2017-07-19T00:28:06.118Z,11.87
2017-07-19T00:30:34.802Z,10.63
2017-07-19T00:33:03.118Z,10.23
2017-07-19T00:35:31.447Z,9.50
2017-07-19T00:37:59.844Z,9.70
2017-07-19T00:40:29.247Z,10.83
2017-07-19T00:42:57.629Z,10.40
2017-07-19T00:45:26.024Z,8.80
2017-07-19T00:47:54.384Z,8.50
2017-07-19T00:50:23.471Z,11.40
2017-07-19T00:52:52.667Z,10.93
2017-07-19T00:55:21.769Z,8.10
2017-07-19T00:57:50.093Z,8.90
2017-07-19T01:00:18.414Z,9.57
2017-07-19T01:02:46.999Z,8.90
2017-07-19T01:05:16.075Z,8.20
2017-07-19T01:07:44.346Z,7.63
2017-07-19T01:10:12.668Z,7.43
2017-07-19T01:12:40.975Z,7.53
2017-07-19T01:15:09.278Z,7.60
2017-07-19T01:17:37.577Z,7.60
2017-07-19T01:20:05.995Z,8.40
2017-07-19T01:22:34.307Z,10.97
2017-07-19T01:25:02.610Z,8.20
2017-07-19T01:27:31.695Z,6.90
2017-07-19T01:30:00.142Z,8.93
2017-07-19T01:32:28.487Z,8.80
2017-07-19T01:34:56.810Z,8.27
2017-07-19T01:37:25.134Z,6.93
2017-07-19T01:39:53.440Z,7.07
2017-07-19T01:42:21.857Z,7.27
2017-07-19T01:44:50.150Z,7.03
2017-07-19T01:47:19.210Z,7.40
2017-07-19T01:49:47.558Z,8.23
2017-07-19T01:52:15.860Z,7.77
2017-07-19T01:54:44.295Z,8.00
2017-07-19T01:57:12.592Z,7.30
2017-07-19T01:59:40.878Z,8.03
2017-07-19T02:02:09.203Z,8.97
2017-07-19T02:04:37.522Z,8.27
2017-07-19T02:07:06.042Z,9.00
2017-07-19T02:09:34.503Z,9.17
2017-07-19T02:12:02.806Z,8.67
2017-07-19T02:14:31.899Z,10.50
2017-07-19T02:17:00.194Z,11.00
2017-07-19T02:19:28.654Z,13.50
2017-07-19T02:21:56.954Z,13.13
2017-07-19T02:24:25.258Z,12.53
2017-07-19T02:26:53.612Z,11.03
2017-07-19T02:29:21.915Z,10.87
2017-07-19T02:31:50.236Z,12.40
2017-07-19T02:34:19.302Z,9.53
2017-07-19T02:36:47.634Z,10.00
2017-07-19T02:39:16.686Z,9.87
2017-07-19T02:41:45.007Z,8.00
2017-07-19T02:44:13.298Z,8.97
2017-07-19T02:46:41.636Z,11.53
2017-07-19T02:49:10.710Z,12.63
2017-07-19T02:51:39.129Z,11.30
2017-07-19T02:54:08.174Z,10.30
2017-07-19T02:56:36.462Z,10.37
2017-07-19T02:59:04.787Z,13.20
2017-07-19T03:01:33.106Z,11.70
2017-07-19T03:04:01.515Z,9.93
2017-07-19T03:06:29.830Z,9.40
2017-07-19T03:08:58.130Z,10.17
2017-07-19T03:11:26.437Z,9.10
2017-07-19T03:13:55.517Z,10.47
2017-07-19T03:16:23.851Z,10.10
2017-07-19T03:18:52.183Z,9.53
2017-07-19T03:21:20.494Z,11.30
2017-07-19T03:23:48.796Z,10.60
2017-07-19T03:26:17.140Z,10.80
2017-07-19T03:28:45.438Z,10.83
2017-07-19T03:31:14.107Z,13.87
2017-07-19T03:33:42.403Z,11.13
2017-07-19T03:36:10.727Z,12.03
2017-07-19T03:38:39.813Z,11.40
2017-07-19T03:41:08.886Z,10.87
2017-07-19T03:43:37.203Z,12.13
2017-07-19T03:46:05.498Z,12.20
2017-07-19T03:48:33.830Z,14.20
2017-07-19T03:51:02.134Z,16.03
2017-07-19T03:53:30.702Z,16.10
2017-07-19T03:55:59.779Z,14.23
2017-07-19T03:58:28.255Z,14.10
2017-07-19T04:00:56.587Z,13.60
2017-07-19T04:03:24.894Z,15.77
2017-07-19T04:05:53.260Z,17.27
2017-07-19T04:08:21.556Z,12.33
2017-07-19T04:10:49.991Z,13.33
2017-07-19T04:13:18.313Z,12.10
2017-07-19T04:15:46.613Z,13.80
2017-07-19T04:18:15.712Z,14.90
2017-07-19T04:20:44.796Z,16.00
2017-07-19T04:23:13.903Z,12.67
2017-07-19T04:25:42.975Z,12.60
2017-07-19T04:28:11.318Z,14.60
2017-07-19T04:30:39.633Z,13.27
2017-07-19T04:33:08.056Z,14.30
2017-07-19T04:35:36.376Z,16.80
2017-07-19T04:38:04.691Z,12.70
2017-07-19T04:40:33.040Z,13.50
2017-07-19T04:43:01.370Z,14.63
2017-07-19T04:45:29.835Z,13.67
2017-07-19T04:47:58.223Z,14.87
2017-07-19T04:50:26.888Z,13.03
2017-07-19T04:52:55.226Z,12.47
2017-07-19T04:55:23.557Z,13.50
2017-07-19T04:57:51.899Z,12.63
2017-07-19T05:00:20.207Z,11.97
2017-07-19T05:02:48.655Z,13.90
2017-07-19T05:05:17.746Z,17.80
2017-07-19T05:07:46.096Z,16.10
2017-07-19T05:10:14.405Z,14.20
2017-07-19T05:12:42.839Z,13.20
2017-07-19T05:15:11.155Z,14.33
2017-07-19T05:17:39.463Z,12.73
2017-07-19T05:20:08.546Z,16.53
2017-07-19T05:22:36.869Z,13.70
2017-07-19T05:25:05.233Z,16.23
2017-07-19T05:27:33.561Z,11.90
2017-07-19T05:30:01.870Z,14.67
2017-07-19T05:32:30.236Z,16.57
2017-07-19T05:34:58.548Z,14.53
2017-07-19T05:37:26.840Z,14.03
2017-07-19T05:39:55.175Z,14.67
2017-07-19T05:42:23.491Z,19.73
2017-07-19T05:44:51.839Z,21.27
2017-07-19T05:47:20.213Z,21.00
2017-07-19T05:49:48.504Z,19.73
2017-07-19T05:52:16.802Z,17.27
2017-07-19T05:54:45.164Z,15.70
2017-07-19T05:57:13.461Z,16.70
2017-07-19T05:59:41.801Z,19.70
2017-07-19T06:02:10.151Z,14.80
2017-07-19T06:04:39.227Z,17.00
2017-07-19T06:07:07.530Z,18.03
2017-07-19T06:09:35.878Z,18.20
2017-07-19T06:12:04.200Z,17.80
2017-07-19T06:14:32.873Z,17.40
2017-07-19T06:17:01.225Z,15.47
2017-07-19T06:19:29.522Z,16.30
2017-07-19T06:21:57.883Z,16.37
2017-07-19T06:24:26.173Z,15.70
2017-07-19T06:26:55.256Z,15.60
2017-07-19T06:29:24.372Z,13.70
2017-07-19T06:31:52.676Z,13.93
2017-07-19T06:34:21.013Z,15.77
2017-07-19T06:36:49.397Z,14.23
2017-07-19T06:39:18.483Z,14.00
2017-07-19T06:41:46.773Z,17.23
2017-07-19T06:44:15.138Z,16.07
2017-07-19T06:46:43.442Z,14.00
2017-07-19T06:49:11.749Z,11.53
2017-07-19T06:51:40.107Z,12.97
2017-07-19T06:54:08.431Z,10.30
2017-07-19T06:56:36.883Z,12.10
2017-07-19T06:59:05.201Z,12.13
2017-07-19T07:01:34.284Z,12.37
2017-07-19T07:04:03.419Z,13.67
2017-07-19T07:06:31.731Z,13.47
2017-07-19T07:09:00.026Z,12.17
2017-07-19T07:11:28.412Z,17.50
2017-07-19T07:13:56.700Z,14.17
2017-07-19T07:16:24.999Z,10.50
2017-07-19T07:18:53.363Z,9.80
2017-07-19T07:21:22.439Z,10.60
2017-07-19T07:23:51.549Z,10.43
2017-07-19T07:26:19.900Z,10.60
2017-07-19T07:28:48.211Z,11.17
2017-07-19T07:31:17.286Z,11.07
2017-07-19T07:33:45.615Z,11.20
2017-07-19T07:36:13.922Z,11.07
2017-07-19T07:38:42.323Z,12.83
2017-07-19T07:41:10.678Z,11.80
2017-07-19T07:43:38.987Z,12.97
2017-07-19T07:46:07.366Z,11.90
2017-07-19T07:48:36.439Z,10.27
2017-07-19T07:51:05.556Z,10.50
2017-07-19T07:53:33.927Z,11.50
2017-07-19T07:56:02.284Z,11.20
2017-07-19T07:58:30.747Z,14.20
2017-07-19T08:00:59.063Z,13.00
2017-07-19T08:03:27.435Z,12.13
2017-07-19T08:05:56.538Z,12.00
2017-07-19T08:08:24.871Z,10.60
2017-07-19T08:10:53.184Z,12.53
2017-07-19T08:13:22.394Z,9.70
2017-07-19T08:15:50.719Z,11.67
2017-07-19T08:18:19.054Z,11.50
2017-07-19T08:20:47.410Z,12.63
2017-07-19T08:23:15.760Z,13.00
2017-07-19T08:25:44.078Z,11.17
2017-07-19T08:28:12.423Z,12.10
2017-07-19T08:30:40.728Z,11.90
2017-07-19T08:33:09.102Z,11.87
2017-07-19T08:35:37.411Z,10.80
2017-07-19T08:38:05.765Z,12.63
2017-07-19T08:40:34.111Z,12.03
2017-07-19T08:43:02.422Z,14.47
2017-07-19T08:45:30.753Z,11.67
2017-07-19T08:47:59.102Z,12.90
2017-07-19T08:50:27.483Z,12.13
2017-07-19T08:52:55.790Z,12.87
2017-07-19T08:55:24.127Z,11.93
2017-07-19T08:57:52.504Z,12.57
2017-07-19T09:00:20.814Z,12.50
2017-07-19T09:02:49.154Z,13.10
2017-07-19T09:05:17.502Z,12.77
2017-07-19T09:07:45.835Z,14.03
2017-07-19T09:10:14.191Z,14.83
2017-07-19T09:12:42.482Z,12.80
2017-07-19T09:15:10.792Z,14.80
2017-07-19T09:17:39.163Z,13.63
2017-07-19T09:20:07.467Z,15.97
2017-07-19T09:22:36.532Z,20.33
2017-07-19T09:25:04.902Z,16.70
2017-07-19T09:27:33.216Z,19.33
2017-07-19T09:30:01.612Z,21.80
2017-07-19T09:32:29.955Z,14.33
2017-07-19T09:34:59.266Z,15.23
2017-07-19T09:37:28.372Z,21.23
2017-07-19T09:39:57.464Z,17.77
2017-07-19T09:42:26.570Z,20.20
2017-07-19T09:44:55.157Z,19.80
2017-07-19T09:47:23.467Z,19.27
2017-07-19T09:49:52.013Z,17.33
2017-07-19T09:52:20.389Z,16.67
2017-07-19T09:54:48.734Z,16.20
2017-07-19T09:57:17.119Z,15.67
2017-07-19T09:59:45.627Z,15.23
2017-07-19T10:02:13.941Z,15.80
2017-07-19T10:04:42.250Z,13.77
2017-07-19T10:07:11.351Z,15.37
2017-07-19T10:09:40.435Z,16.33
2017-07-19T10:12:09.844Z,14.40
2017-07-19T10:14:38.140Z,13.60
2017-07-19T10:17:06.524Z,15.37
2017-07-19T10:19:34.909Z,13.93
2017-07-19T10:22:03.371Z,11.43
2017-07-19T10:24:31.819Z,12.13
2017-07-19T10:27:00.229Z,12.90
2017-07-19T10:29:28.702Z,16.20
2017-07-19T10:31:57.030Z,16.03
2017-07-19T10:34:25.366Z,12.10
2017-07-19T10:36:53.731Z,15.33
2017-07-19T10:39:22.126Z,15.03
2017-07-19T10:41:50.509Z,13.27
2017-07-19T10:44:18.982Z,14.53
2017-07-19T10:46:47.487Z,14.53
2017-07-19T10:49:15.831Z,15.77
2017-07-19T10:51:45.131Z,14.40
2017-07-19T10:54:14.239Z,15.67
2017-07-19T10:56:42.717Z,15.53
2017-07-19T10:59:11.051Z,16.13
2017-07-19T11:01:39.362Z,14.23
2017-07-19T11:04:07.943Z,14.60
2017-07-19T11:06:37.046Z,22.10
2017-07-19T11:09:06.155Z,21.17
2017-07-19T11:11:34.903Z,22.03
2017-07-19T11:14:03.975Z,21.87
2017-07-19T11:16:32.700Z,23.60
2017-07-19T11:19:01.808Z,24.30
2017-07-19T11:21:30.150Z,20.80
2017-07-19T11:23:59.262Z,22.60
2017-07-19T11:26:27.643Z,28.43
2017-07-19T11:28:56.123Z,29.00
2017-07-19T11:31:25.226Z,26.40
2017-07-19T11:33:54.294Z,30.00
2017-07-19T11:36:22.686Z,29.33
2017-07-19T11:38:51.067Z,27.27
2017-07-19T11:41:19.408Z,22.50
2017-07-19T11:43:47.823Z,20.20
2017-07-19T11:46:16.163Z,24.67
2017-07-19T11:48:44.509Z,24.17
2017-07-19T11:51:12.798Z,23.77
2017-07-19T11:53:41.123Z,25.90
2017-07-19T11:56:10.331Z,25.57
2017-07-19T11:58:39.434Z,27.17
2017-07-19T12:01:08.519Z,27.00
2017-07-19T12:03:37.625Z,29.13
2017-07-19T12:06:06.703Z,27.53
2017-07-19T12:08:35.087Z,33.33
2017-07-19T12:11:04.301Z,22.03
2017-07-19T12:13:33.359Z,15.60
2017-07-19T12:16:02.481Z,13.57
2017-07-19T12:18:30.860Z,12.63
2017-07-19T12:20:59.191Z,12.70
2017-07-19T12:23:27.496Z,14.70
2017-07-19T12:25:56.000Z,12.87
2017-07-19T12:28:24.372Z,14.93
2017-07-19T12:30:53.473Z,15.37
2017-07-19T12:33:21.859Z,14.27
2017-07-19T12:35:50.208Z,13.33
2017-07-19T12:38:18.625Z,13.73
2017-07-19T12:40:46.959Z,13.77
2017-07-19T12:43:15.324Z,13.10
2017-07-19T12:45:44.448Z,13.80
2017-07-19T12:48:12.808Z,12.67
2017-07-19T12:50:41.123Z,14.17
2017-07-19T12:53:09.488Z,16.30
2017-07-19T12:55:38.608Z,15.63
2017-07-19T12:58:06.975Z,14.57
2017-07-19T13:00:36.902Z,18.93
2017-07-19T13:03:05.542Z,16.13
2017-07-19T13:05:33.919Z,19.17
2017-07-19T13:08:02.337Z,18.10
2017-07-19T13:10:30.705Z,17.07
2017-07-19T13:12:59.045Z,16.30
2017-07-19T13:15:28.147Z,15.73
2017-07-19T13:17:57.239Z,14.90
2017-07-19T13:20:25.727Z,16.13
2017-07-19T13:22:54.054Z,15.50
2017-07-19T13:25:22.392Z,17.60
2017-07-19T13:27:50.728Z,17.10
2017-07-19T13:30:19.206Z,14.87
2017-07-19T13:32:47.548Z,12.60
2017-07-19T13:35:15.844Z,12.93
2017-07-19T13:37:44.385Z,14.30
2017-07-19T13:40:12.837Z,11.80
2017-07-19T13:42:41.154Z,13.97
2017-07-19T13:45:09.523Z,16.00
2017-07-19T13:47:37.858Z,13.47
2017-07-19T13:50:06.584Z,12.17
2017-07-19T13:52:34.902Z,13.67
2017-07-19T13:55:03.226Z,14.67
2017-07-19T13:57:31.575Z,16.43
2017-07-19T13:59:59.995Z,15.77
2017-07-19T14:02:29.496Z,14.70
2017-07-19T14:04:57.809Z,13.90
2017-07-19T14:07:26.112Z,15.70
2017-07-19T14:09:54.471Z,13.63
2017-07-19T14:12:22.787Z,15.53
2017-07-19T14:14:52.704Z,12.30
2017-07-19T14:17:21.789Z,11.70
2017-07-19T14:19:51.106Z,12.80
2017-07-19T14:22:20.183Z,12.10
2017-07-19T14:24:48.492Z,14.33
2017-07-19T14:27:16.960Z,12.60
2017-07-19T14:29:46.026Z,11.30
2017-07-19T14:32:14.346Z,10.40
2017-07-19T14:34:42.678Z,11.37
2017-07-19T14:37:11.799Z,11.87
2017-07-19T14:39:40.299Z,9.90
2017-07-19T14:42:09.198Z,9.70
2017-07-19T14:44:37.845Z,11.10
2017-07-19T14:47:06.963Z,11.40
2017-07-19T14:49:36.058Z,14.03
2017-07-19T14:52:04.394Z,12.93
2017-07-19T14:54:32.915Z,12.97
2017-07-19T14:57:01.394Z,11.90
2017-07-19T14:59:30.176Z,13.00
2017-07-19T15:01:59.238Z,12.77
2017-07-19T15:04:27.549Z,15.87
2017-07-19T15:06:56.636Z,12.83
2017-07-19T15:09:25.240Z,14.20
2017-07-19T15:11:53.609Z,12.97
2017-07-19T15:14:21.920Z,14.90
2017-07-19T15:16:50.261Z,12.20
2017-07-19T15:19:18.596Z,12.50
2017-07-19T15:21:47.136Z,12.70
2017-07-19T15:24:15.432Z,16.30
2017-07-19T15:26:43.751Z,14.33
2017-07-19T15:29:12.356Z,15.37
2017-07-19T15:31:40.640Z,13.67
2017-07-19T15:34:08.965Z,13.77
2017-07-19T15:36:37.288Z,13.97
2017-07-19T15:39:05.859Z,15.07
2017-07-19T15:41:34.166Z,15.70
2017-07-19T15:44:02.473Z,16.97
2017-07-19T15:46:30.809Z,17.60
2017-07-19T15:48:59.242Z,15.77
2017-07-19T15:51:28.354Z,16.83
2017-07-19T15:53:56.655Z,18.27
2017-07-19T15:56:24.975Z,17.70
2017-07-19T15:58:54.082Z,16.53
2017-07-19T16:01:22.700Z,15.33
2017-07-19T16:03:51.025Z,17.67
2017-07-19T16:06:19.332Z,16.97
2017-07-19T16:08:47.660Z,14.30
2017-07-19T16:11:15.958Z,16.10
2017-07-19T16:13:44.308Z,14.20
2017-07-19T16:16:12.624Z,16.77
2017-07-19T16:18:41.747Z,16.30
2017-07-19T16:21:10.087Z,18.13
2017-07-19T16:23:38.432Z,15.60
2017-07-19T16:26:06.745Z,15.47
2017-07-19T16:28:35.259Z,20.77
2017-07-19T16:31:04.332Z,18.63
2017-07-19T16:33:32.826Z,16.83
2017-07-19T16:36:01.922Z,15.33
2017-07-19T16:38:30.982Z,17.83
2017-07-19T16:40:59.510Z,17.90
2017-07-19T16:43:27.839Z,19.90
2017-07-19T16:45:56.146Z,20.93
2017-07-19T16:48:24.515Z,19.60
2017-07-19T16:50:52.824Z,24.63
2017-07-19T16:53:21.399Z,18.57
2017-07-19T16:55:50.471Z,17.23
2017-07-19T16:58:18.779Z,17.70
2017-07-19T17:00:47.113Z,14.87
2017-07-19T17:03:15.430Z,18.90
2017-07-19T17:05:44.014Z,16.27
2017-07-19T17:08:12.308Z,14.27
2017-07-19T17:10:40.602Z,15.63
2017-07-19T17:13:08.922Z,14.73
2017-07-19T17:15:38.013Z,12.60
2017-07-19T17:18:06.312Z,15.13
2017-07-19T17:20:34.610Z,13.73
2017-07-19T17:23:03.217Z,12.03
2017-07-19T17:25:31.519Z,12.97
2017-07-19T17:27:59.832Z,12.20
2017-07-19T17:30:28.163Z,15.13
2017-07-19T17:32:56.450Z,13.00
2017-07-19T17:35:24.772Z,11.63
2017-07-19T17:37:53.071Z,15.17
2017-07-19T17:40:21.408Z,12.07
2017-07-19T17:42:49.858Z,14.10
2017-07-19T17:45:18.170Z,13.87
2017-07-19T17:47:46.482Z,13.93
2017-07-19T17:50:14.990Z,11.53
2017-07-19T17:52:43.310Z,12.43
2017-07-19T17:55:11.642Z,13.50
2017-07-19T17:57:40.138Z,13.07
2017-07-19T18:00:08.536Z,13.00
2017-07-19T18:02:36.911Z,13.50
2017-07-19T18:05:05.968Z,12.00
2017-07-19T18:07:34.385Z,11.03
2017-07-19T18:10:02.705Z,11.07
2017-07-19T18:12:31.399Z,10.00
2017-07-19T18:14:59.719Z,12.33
2017-07-19T18:17:28.037Z,10.80
2017-07-19T18:19:56.475Z,12.37
2017-07-19T18:22:24.808Z,12.60
2017-07-19T18:24:53.526Z,11.53
2017-07-19T18:27:21.923Z,12.03
2017-07-19T18:29:50.252Z,10.63
2017-07-19T18:32:18.670Z,11.53
2017-07-19T18:34:47.050Z,9.87
2017-07-19T18:37:15.367Z,11.90
2017-07-19T18:39:43.794Z,9.17
2017-07-19T18:42:12.991Z,9.23
2017-07-19T18:44:41.299Z,9.90
2017-07-19T18:47:09.860Z,9.10
2017-07-19T18:49:38.190Z,8.20
2017-07-19T18:52:06.528Z,8.30
2017-07-19T18:54:35.589Z,7.83
2017-07-19T18:57:03.907Z,9.67
2017-07-19T18:59:32.249Z,11.50
2017-07-19T19:02:00.792Z,9.63
2017-07-19T19:04:29.336Z,13.27
2017-07-19T19:06:57.807Z,12.70
2017-07-19T19:09:26.166Z,11.10
2017-07-19T19:11:54.494Z,15.10
2017-07-19T19:14:23.050Z,15.27
2017-07-19T19:16:51.381Z,16.10
2017-07-19T19:19:19.684Z,13.00
2017-07-19T19:21:48.027Z,14.70
2017-07-19T19:24:16.345Z,18.37
2017-07-19T19:26:44.683Z,14.63
2017-07-19T19:29:13.010Z,15.70
2017-07-19T19:31:42.263Z,16.50
2017-07-19T19:34:10.691Z,17.83
2017-07-19T19:36:39.436Z,16.17
2017-07-19T19:39:08.558Z,15.27
2017-07-19T19:41:37.641Z,15.67
2017-07-19T19:44:06.009Z,13.37
2017-07-19T19:46:34.312Z,13.53
2017-07-19T19:49:02.655Z,14.27
2017-07-19T19:51:31.015Z,13.17
2017-07-19T19:53:59.511Z,16.87
2017-07-19T19:56:28.651Z,20.47
2017-07-19T19:58:57.015Z,19.53
2017-07-19T20:01:25.354Z,23.37
2017-07-19T20:03:53.672Z,21.57
2017-07-19T20:06:22.032Z,23.03
2017-07-19T20:08:51.119Z,23.27
2017-07-19T20:11:19.661Z,21.77
2017-07-19T20:13:47.956Z,24.63
2017-07-19T20:16:16.354Z,24.37
2017-07-19T20:18:44.674Z,22.67
2017-07-19T20:21:13.002Z,20.93
2017-07-19T20:23:41.358Z,19.73
2017-07-19T20:26:09.693Z,18.70
2017-07-19T20:28:38.285Z,19.90
2017-07-19T20:31:06.623Z,20.37
2017-07-19T20:33:34.927Z,18.43
2017-07-19T20:36:03.283Z,18.50
2017-07-19T20:38:31.590Z,21.27
2017-07-19T20:40:59.940Z,20.27
2017-07-19T20:43:29.024Z,17.67
2017-07-19T20:45:57.373Z,18.83
2017-07-19T20:48:25.692Z,18.27
2017-07-19T20:50:55.142Z,20.30
2017-07-19T20:53:23.463Z,17.47
2017-07-19T20:55:52.572Z,18.30
2017-07-19T20:58:20.902Z,18.20
2017-07-19T21:00:49.231Z,21.40
2017-07-19T21:03:18.669Z,19.33
2017-07-19T21:05:46.990Z,17.70
2017-07-19T21:08:15.314Z,20.07
2017-07-19T21:10:43.784Z,21.40
2017-07-19T21:13:12.098Z,17.90
2017-07-19T21:15:40.452Z,20.27
2017-07-19T21:18:08.770Z,20.17
2017-07-19T21:20:37.094Z,18.20
2017-07-19T21:23:05.495Z,18.83
2017-07-19T21:25:34.045Z,20.47
2017-07-19T21:28:02.355Z,18.40
2017-07-19T21:30:30.682Z,17.40
2017-07-19T21:32:59.005Z,19.90
2017-07-19T21:35:27.441Z,19.57
2017-07-19T21:37:55.808Z,19.30
2017-07-19T21:40:29.654Z,19.40
2017-07-19T21:42:57.999Z,21.43
2017-07-19T21:45:26.329Z,19.37
2017-07-19T21:47:54.857Z,18.67
2017-07-19T21:50:23.950Z,20.70
2017-07-19T21:52:52.295Z,21.10
2017-07-19T21:55:20.611Z,23.83
2017-07-19T21:57:48.967Z,23.37
2017-07-19T22:00:18.087Z,22.43
2017-07-19T22:02:46.726Z,20.87
2017-07-19T22:05:15.036Z,18.93
2017-07-19T22:07:43.331Z,20.17
2017-07-19T22:10:11.684Z,19.07
2017-07-19T22:12:40.136Z,19.33
2017-07-19T22:15:08.498Z,18.67
2017-07-19T22:17:36.828Z,18.80
2017-07-19T22:20:05.133Z,17.20
2017-07-19T22:22:33.436Z,17.60
2017-07-19T22:25:02.066Z,18.40
2017-07-19T22:27:30.406Z,20.00
2017-07-19T22:29:58.743Z,18.70
2017-07-19T22:32:27.086Z,19.83
2017-07-19T22:34:55.403Z,21.47
2017-07-19T22:37:24.115Z,21.53
2017-07-19T22:39:52.465Z,23.70
2017-07-19T22:42:20.793Z,22.97
2017-07-19T22:44:50.116Z,21.93
2017-07-19T22:47:18.502Z,24.60
2017-07-19T22:49:48.006Z,25.57
2017-07-19T22:52:16.339Z,28.07
2017-07-19T22:54:44.644Z,29.87
2017-07-19T22:57:13.753Z,29.90
2017-07-19T22:59:42.822Z,28.90
2017-07-19T23:02:11.946Z,27.00
2017-07-19T23:04:40.263Z,25.97
2017-07-19T23:07:08.599Z,28.07
2017-07-19T23:09:36.923Z,29.90
2017-07-19T23:12:05.282Z,26.73
2017-07-19T23:14:33.598Z,22.00
2017-07-19T23:17:02.312Z,22.37
2017-07-19T23:19:30.642Z,22.67
2017-07-19T23:21:59.154Z,19.60
2017-07-19T23:24:28.281Z,24.70
2017-07-19T23:26:56.612Z,20.43
2017-07-19T23:29:24.939Z,18.13
2017-07-19T23:31:53.388Z,19.83
2017-07-19T23:34:22.490Z,18.17
2017-07-19T23:36:50.943Z,20.93
2017-07-19T23:39:19.459Z,22.20
2017-07-19T23:41:47.916Z,21.57
2017-07-19T23:44:16.324Z,20.70
2017-07-19T23:46:44.635Z,18.70
2017-07-19T23:49:12.953Z,21.47
2017-07-19T23:51:41.295Z,19.10
2017-07-19T23:54:09.878Z,21.57
2017-07-19T23:56:38.212Z,21.77
2017-07-19T23:59:06.574Z,21.87
